x

New Dungeness - 17 Nm Ne Of Port Angeles, Wa (46088) Wave Buoy

3:50 - Mon 5th Dec 2016 All times are PST. -8 hours from GMT.

  • Sig Wave height 2.3ft
  • Swell Direction
  • Peak Period 3s
  • Average Period 4s
  • Wind
    18mph, 22mph gusts
  • Sea Temp 50°f
  • Luft Temp 42°f
  • Sea Pressure 1017.4mb
  • New Dungeness - 17 Nm Ne Of Port Angeles, Wa
  • New Dungeness - 17 Nm Ne Of Port Angeles, Wa

More Historic Weather Station data

Upgrade to MSW Pro to gain access to the past 30 days of data for over 8000 Wavebouys and Weather Stations around the globe.

Join Pro

Comparision Forecast

View Surf forecast
   
Mo 12/05 3:50 2.5ft 3s 4s 18 22 mph 1017.4mb 50f 42f
3:20 2ft 9s 5s 20 22 mph 1017.7mb 50f 42f
2:50 1.6ft 7s 5s 16 20 mph 1018.2mb 50f 42f
2:20 1.6ft 7s 5s 7 9 mph 1018.6mb 50f 41f
1:50 1.3ft 7s 4s  -  2 mph 1018.9mb 49f 40f
1:20 1.3ft 4s 4s 4 7 mph 1018.9mb 49f 40f
12:50 1.6ft 5s 4s 9 11 mph 1019.2mb 50f 40f
12:20 1.6ft 5s 4s 9 13 mph 1019.7mb 50f 39f
So 12/04 11:50 2ft 5s 4s 13 20 mph 1019.6mb 50f 41f
11:20 2.5ft 5s 4s 20 22 mph 1019.3mb 50f 41f
10:50 2.5ft 5s 4s 18 22 mph 1019.2mb 50f 43f
10:20 3ft 5s 4s 20 25 mph 1019mb 50f 41f
9:50 3.5ft 5s 5s 22 27 mph 1018.7mb 50f 43f
9:20 3.5ft 5s 4s 22 29 mph 1018.5mb 50f 43f
8:50 3.5ft 5s 4s 22 29 mph 1018.4mb 50f 43f
8:20 3ft 5s 4s 22 27 mph 1018.3mb 50f 43f
7:50 3.5ft 5s 4s 20 25 mph 1018.2mb 50f 44f
7:20 3.5ft 5s 4s 20 25 mph 1018mb 50f 44f
6:50 3.5ft 5s 4s 22 27 mph 1018mb 50f 45f
6:20 3.5ft 5s 4s 25 29 mph 1017.9mb 50f 45f
5:50 3.5ft 5s 4s 25 31 mph 1017.7mb 50f 46f
5:20 3.5ft 5s 4s 25 31 mph 1017.2mb 50f 46f
4:50 3ft 5s 4s 22 27 mph 1017.4mb 50f 46f
4:20 3ft 5s 4s 22 29 mph 1017.4mb 50f 46f
3:50 3ft 5s 4s 22 27 mph 1017.3mb 50f 46f
3:20 2.5ft 5s 4s 18 22 mph 1017.3mb 50f 47f
2:50 3ft 5s 5s 16 18 mph 1017.2mb 50f 46f
2:20 3.5ft 5s 5s 16 20 mph 1017mb 50f 46f
1:50 3.5ft 5s 5s 13 20 mph 1017mb 50f 46f
1:20 2.5ft 5s 4s 13 20 mph 1017mb 50f 46f
12:50 2.5ft 5s 4s 13 18 mph 1017mb 50f 46f
12:20 3ft 5s 4s 22 27 mph 1016.7mb 50f 46f
11:50 2.5ft 5s 4s 25 29 mph 1016.5mb 50f 46f
11:20 2.5ft 5s 4s 20 25 mph 1016.5mb 50f 45f
10:50 2ft 3s 4s 22 27 mph 1016.3mb 50f 45f
10:20 2.5ft 3s 3s 22 27 mph 1016.1mb 50f 45f
9:50 2.5ft 4s 3s 20 25 mph 1015.9mb 50f 45f
9:20 2.5ft 3s 4s 20 22 mph 1015.6mb 50f 45f
8:50 2.5ft 4s 3s 20 25 mph 1015.3mb 50f 45f
8:20 2.5ft 3s 3s 20 25 mph 1015.4mb 50f 44f
7:50 2.5ft 4s 3s 13 18 mph 1015.1mb 50f 43f
7:20 3ft 4s 3s 13 16 mph 1015mb 50f 43f
6:50 3ft 4s 4s 20 25 mph 1014.9mb 50f 43f
6:20 4ft 4s 4s 22 27 mph 1014.7mb 50f 44f
5:50 4ft 4s 4s 25 29 mph 1014.4mb 50f 43f
5:20 4.5ft 4s 4s 27 34 mph 1014.1mb 50f 45f
4:50 5ft 5s 4s 31 38 mph 1013.4mb 50f 45f
4:20 5ft 5s 4s 29 36 mph 1014mb 50f 45f
3:50 4.5ft 5s 4s 29 34 mph 1014.1mb 50f 45f
3:20 5ft 5s 4s 31 36 mph 1014.5mb 50f 45f
2:50 5ft 5s 4s 27 31 mph 1014.8mb 50f 45f
2:20 5ft 6s 5s 29 34 mph 1014.7mb 50f 46f
1:50 4.5ft 6s 5s 27 34 mph 1015mb 50f 45f
1:20 4ft 5s 5s 25 29 mph 1015.5mb 50f 45f
12:50 4ft 5s 5s 25 29 mph 1016mb 50f 45f
12:20 3.5ft 6s 5s 25 29 mph 1016.3mb 50f 45f
Sa 12/03 11:50 3.5ft 6s 5s 18 27 mph 1016.6mb 50f 45f
11:20 3.5ft 6s 5s 22 27 mph 1016.8mb 50f 45f
10:50 3ft 5s 4s 20 27 mph 1017.1mb 50f 46f
10:20 2.5ft 5s 4s 22 29 mph 1017.4mb 50f 46f
9:50 3ft 5s 4s 22 27 mph 1017.4mb 50f 46f
9:20 3ft 5s 4s 18 22 mph 1017.7mb 50f 46f
8:50 2.5ft 5s 4s 22 27 mph 1017.7mb 50f 46f
8:20 2.5ft 5s 4s 18 22 mph 1018mb 50f 46f
7:50 2.5ft 4s 4s 25 29 mph 1017.9mb 50f 47f
7:20 1.6ft 4s 4s 20 25 mph 1018.3mb 50f 47f
6:50 1.3ft 14s 4s 22 29 mph 1018.7mb 50f 47f
6:20 1.3ft 4s 4s 4 7 mph 1019mb 50f 47f
5:50 1.3ft 3s 3s 7 11 mph 1019.3mb 50f 47f
5:20 1.3ft 4s 3s 7 13 mph 1020mb 50f 47f
4:50 1.3ft 3s 3s 4 7 mph 1020.1mb 50f 47f
4:20 1.3ft 3s 3s 9
mph
1020.2mb 50f 47f
3:50 1.6ft 4s 3s 9
mph
1021.1mb 50f 47f
3:20 1.6ft 4s 3s 9 13 mph 1021.4mb 50f 47f
2:50 1.6ft 4s 3s 11 16 mph 1021.3mb 50f 47f
2:20 1.6ft 4s 4s 9 11 mph 1022.3mb 50f 47f
1:50 1.6ft 4s 4s 9 11 mph 1022.4mb 50f 48f
1:20 1.6ft 4s 4s 9 11 mph 1022.4mb 50f 48f
12:50 1.3ft 4s 3s 11 13 mph 1023mb 50f 48f
12:20 1.3ft 4s 3s 9 11 mph 1023.6mb 50f 49f
11:50 1.3ft 4s 3s 7 11 mph 1023.6mb 50f 49f
11:20 1.3ft 4s 3s 11 13 mph 1023.2mb 50f 48f
10:50 1.3ft 4s 3s 7 11 mph 1023.9mb 50f 49f
10:20 1.3ft 3s 3s 11 16 mph 1023.6mb 50f 50f
9:50 1.6ft 3s 3s 20 22 mph 1023.1mb 50f 50f
9:20 1.6ft 3s 3s 18 22 mph 1023.5mb 50f 50f
8:50 1.6ft 3s 3s 18 20 mph 1023.1mb 50f 50f
8:20 2ft 3s 3s 18 22 mph 1022.8mb 50f 49f
7:50 1.6ft 3s 3s 20 25 mph 1022.9mb 50f 50f
7:20 1.6ft 3s 3s 13 16 mph 1023.1mb 50f 49f
6:50 1.6ft 3s 3s 18 20 mph 1023mb 50f 49f
6:20 2.5ft 3s 3s 20 25 mph 1022.3mb 50f 49f
5:50 2.5ft 3s 3s 22 27 mph 1022.2mb 50f 49f
5:20 3ft 3s  -  25 31 mph 1021.9mb 50f 49f
4:50 3ft 4s 3s 25 31 mph 1021.9mb 50f 49f
4:20 3.5ft 4s 4s 27 31 mph 1021.8mb 50f 49f
3:50 4ft 5s 4s 25 29 mph 1021.9mb 50f 49f
3:20 3.5ft 5s 4s 22 27 mph 1022mb 50f 49f
2:50 3.5ft 4s 4s 22 29 mph 1021.9mb 50f 48f
2:20 3.5ft 4s 4s 22 27 mph 1021.7mb 50f 49f
1:50 3.5ft 5s 4s 20 22 mph 1021.7mb 50f 48f
1:20 3.5ft 5s 4s 20 25 mph 1021.3mb 50f 49f
12:50 3.5ft 6s 4s 20 25 mph 1021.4mb 50f 49f
12:20 3.5ft 6s 4s 22 27 mph 1020.9mb 50f 50f
Fr 12/02 11:50 4ft 6s 5s 18 20 mph 1020.8mb 50f 49f
11:20 3.5ft 6s 5s 25 29 mph 1020.1mb 50f 48f
10:50 3.5ft 5s 5s 22 29 mph 1019.6mb 50f 50f
10:20 3.5ft 6s 5s 25 29 mph 1019.2mb 50f 50f
9:50 2.5ft 6s 5s 20 22 mph 1019.4mb 50f 50f
9:20 3.5ft 6s 5s 18 22 mph 1019.2mb 50f 49f
8:50 3.5ft 6s 5s 20 27 mph 1018.8mb 50f 50f
8:20 3.5ft 5s 5s 20 27 mph 1018.6mb 50f 50f
7:50 4.5ft 6s 5s 18 20 mph 1018.4mb 50f 50f
7:20 4.5ft 5s 5s 18 22 mph 1018.1mb 50f 51f
6:50 4ft 5s 5s 27 31 mph 1017.3mb 50f 51f
6:20 3.5ft 5s 4s 27 31 mph 1016.4mb 50f 51f
5:50 3ft 4s 4s 22 29 mph 1016.4mb 50f 51f
5:20 2ft 5s 3s 18 25 mph 1016.8mb 50f 51f
4:50 2ft 4s 4s 18 20 mph 1016.6mb 50f 51f
4:20 2.5ft 5s 4s 18 22 mph 1016.6mb 50f 50f
3:50 2.5ft 5s 4s 2
mph
1016.7mb 50f 48f
3:20 2.5ft 4s 4s 4 7 mph 1016.7mb 50f 49f
2:50 2.5ft 5s 4s 9 13 mph 1016.6mb 50f 50f
2:20 2.5ft 5s 4s 11 13 mph 1015.5mb 51f 50f
1:50 3ft 5s 4s 18 25 mph 1015.2mb 50f 51f
1:20 2.5ft 4s 4s 13 16 mph 1015.7mb 50f 50f
12:50 2.5ft 4s 4s 16 18 mph 1016.5mb 50f 50f
12:20 2.5ft 4s 4s 11 13 mph 1017mb 50f 49f
11:50 3ft 5s 4s 11 13 mph 1017.7mb 50f 49f
11:20 3ft 4s 4s 13 16 mph 1017.9mb 50f 49f
10:50 2.5ft 4s 4s 20 22 mph 1018.5mb 50f 48f
10:20 2.5ft 4s 4s 18 20 mph 1019.3mb 50f 48f
9:50 2.5ft 4s 4s 13
mph
1019.6mb 50f 47f
9:20 2.5ft 4s 4s 11 13 mph 1020mb 50f 47f
8:50 2.5ft 4s 4s 13 16 mph 1020.6mb 50f 47f
8:20 2.5ft 4s 4s 13 16 mph 1021mb 50f 48f
7:50 2ft 4s 4s 20 22 mph 1021.3mb 50f 47f
7:20 2ft 5s 4s 16 20 mph 1021.2mb 50f 47f
6:50 2ft 4s 4s 13 16 mph 1022.1mb 50f 47f
6:20 2ft 4s 4s 16 18 mph 1022mb 50f 47f
5:50 1.6ft 4s 4s 16 18 mph 1022.4mb 50f 47f
5:20 1.6ft 4s 4s 18 20 mph 1021.9mb 51f 47f
4:50 2ft 4s 4s 16 18 mph 1022.5mb 51f 47f
4:20 1.6ft 4s 4s 16 18 mph 1022.8mb 51f 47f
3:50 2ft 4s 4s 16 20 mph 1023mb 50f 47f
3:20 2ft 4s 4s 18 20 mph 1023.4mb 50f 47f
2:50 2.5ft 4s 4s 20 22 mph 1023.6mb 50f 47f
2:20 2.5ft 4s 4s 20 25 mph 1023.9mb 50f 47f
1:50 2.5ft 4s 4s 22 27 mph 1024mb 50f 47f
1:20 2.5ft 4s 4s 22 27 mph 1024.2mb 50f 47f
12:50 3ft 4s 4s 22 27 mph 1024.2mb 50f 47f
12:20 3ft 4s 4s 25 27 mph 1024.2mb 50f 47f
Do 12/01 11:50 2.5ft 4s 4s 25 29 mph 1024.5mb 50f 47f
11:20 2.5ft 4s 3s 22 29 mph 1024.9mb 50f 47f
10:50 2.5ft 4s 3s 25 29 mph 1024.7mb 51f 47f
10:20 2.5ft 4s 3s 25 29 mph 1024.5mb 51f 46f
9:50 2.5ft 4s 3s 22 27 mph 1024.6mb 50f 46f
9:20 2ft 3s 3s 25 29 mph 1024.8mb 51f 46f
8:50 2ft 3s 3s 22 25 mph 1024.7mb 50f 46f
8:20 2ft 3s 3s 20 22 mph 1025.1mb 50f 46f
7:50 2ft 3s 3s 18 22 mph 1025.3mb 50f 47f
7:20 2.5ft 3s 3s 20 22 mph 1025.1mb 50f 47f
6:50 2ft 3s 3s 20 25 mph 1025mb 50f 47f
6:20 1.6ft 3s 3s 20 22 mph 1025.2mb 50f 47f
5:50 1.6ft 3s 3s 18 20 mph 1025.1mb 50f 47f
5:20 1.6ft 3s 3s 16 18 mph 1024.9mb 50f 47f
4:50 1.3ft 3s 3s 16 20 mph 1024.6mb 50f 47f
4:20 1ft 12s 3s 16 18 mph 1024.9mb 50f 48f
3:50 1ft 12s 4s 13 16 mph 1024.6mb 50f 48f
3:20 0.7ft  -  4s 9 13 mph 1024.7mb 50f 48f
2:50 1ft 11s 4s 9 11 mph 1024.6mb 50f 47f
2:20 0.7ft  -  4s 7 9 mph 1024.5mb 50f 47f
1:50 0.7ft  -  4s 4 7 mph 1024.5mb 50f 47f
1:20 0.7ft  -  4s 4 7 mph 1024.5mb 50f 47f
12:50 0.7ft  -  4s 4
mph
1024.2mb 50f 47f